sensor_id;sensor_type;location;lat;lon;timestamp;pressure;altitude;pressure_sealevel;temperature;humidity
54248;BME280;40161;39.768;2.722;2023-01-19T00:02:11;100698.56;;;9.74;53.20
54248;BME280;40161;39.768;2.722;2023-01-19T00:04:36;100660.53;;;9.53;51.37
54248;BME280;40161;39.768;2.722;2023-01-19T00:07:02;100733.50;;;10.00;51.90
54248;BME280;40161;39.768;2.722;2023-01-19T00:09:29;100717.72;;;9.93;51.57
54248;BME280;40161;39.768;2.722;2023-01-19T00:11:58;100706.34;;;9.91;52.07
54248;BME280;40161;39.768;2.722;2023-01-19T00:14:23;100722.34;;;9.89;52.06
54248;BME280;40161;39.768;2.722;2023-01-19T00:16:49;100737.28;;;9.92;52.31
54248;BME280;40161;39.768;2.722;2023-01-19T00:19:14;100753.78;;;9.95;52.49
54248;BME280;40161;39.768;2.722;2023-01-19T00:21:40;100734.16;;;9.93;51.86
54248;BME280;40161;39.768;2.722;2023-01-19T00:24:06;100739.09;;;9.84;51.27
54248;BME280;40161;39.768;2.722;2023-01-19T00:26:31;100733.81;;;9.75;51.74
54248;BME280;40161;39.768;2.722;2023-01-19T00:28:57;100743.81;;;9.87;51.68
54248;BME280;40161;39.768;2.722;2023-01-19T00:31:22;100740.22;;;9.83;51.94
54248;BME280;40161;39.768;2.722;2023-01-19T00:33:49;100747.88;;;9.93;53.03
54248;BME280;40161;39.768;2.722;2023-01-19T00:36:16;100729.91;;;9.77;53.87
54248;BME280;40161;39.768;2.722;2023-01-19T00:38:42;100724.78;;;9.75;54.28
54248;BME280;40161;39.768;2.722;2023-01-19T00:41:07;100751.19;;;9.83;55.20
54248;BME280;40161;39.768;2.722;2023-01-19T00:43:33;100764.47;;;9.81;56.17
54248;BME280;40161;39.768;2.722;2023-01-19T00:45:58;100796.56;;;9.81;56.84
54248;BME280;40161;39.768;2.722;2023-01-19T00:48:24;100770.94;;;9.73;54.39
54248;BME280;40161;39.768;2.722;2023-01-19T00:50:49;100779.47;;;9.68;54.54
54248;BME280;40161;39.768;2.722;2023-01-19T00:53:15;100786.34;;;9.62;55.98
54248;BME280;40161;39.768;2.722;2023-01-19T00:55:40;100784.84;;;9.64;55.92
54248;BME280;40161;39.768;2.722;2023-01-19T00:58:06;100771.63;;;9.50;55.16
54248;BME280;40161;39.768;2.722;2023-01-19T01:00:31;100739.59;;;9.35;55.46
54248;BME280;40161;39.768;2.722;2023-01-19T01:02:57;100787.38;;;9.73;56.41
54248;BME280;40161;39.768;2.722;2023-01-19T01:05:22;100729.56;;;9.23;56.26
54248;BME280;40161;39.768;2.722;2023-01-19T01:07:48;100792.28;;;9.64;55.23
54248;BME280;40161;39.768;2.722;2023-01-19T01:10:20;100809.75;;;9.75;55.38
54248;BME280;40161;39.768;2.722;2023-01-19T01:12:47;100794.22;;;9.63;56.02
54248;BME280;40161;39.768;2.722;2023-01-19T01:15:14;100796.78;;;9.56;56.94
54248;BME280;40161;39.768;2.722;2023-01-19T01:17:40;100808.00;;;9.67;57.29
54248;BME280;40161;39.768;2.722;2023-01-19T01:20:31;100782.31;;;9.56;56.07
54248;BME280;40161;39.768;2.722;2023-01-19T01:22:59;100785.28;;;9.66;56.29
54248;BME280;40161;39.768;2.722;2023-01-19T01:25:26;100788.66;;;9.60;56.72
54248;BME280;40161;39.768;2.722;2023-01-19T01:27:53;100782.97;;;9.68;58.30
54248;BME280;40161;39.768;2.722;2023-01-19T01:30:19;100803.25;;;9.64;60.39
54248;BME280;40161;39.768;2.722;2023-01-19T01:32:45;100786.84;;;9.48;61.18
54248;BME280;40161;39.768;2.722;2023-01-19T01:35:11;100802.28;;;9.56;61.46
54248;BME280;40161;39.768;2.722;2023-01-19T01:37:37;100801.06;;;9.38;61.38
54248;BME280;40161;39.768;2.722;2023-01-19T01:40:04;100803.66;;;9.46;62.79
54248;BME280;40161;39.768;2.722;2023-01-19T01:42:31;100821.03;;;9.54;61.25
54248;BME280;40161;39.768;2.722;2023-01-19T01:45:03;100825.19;;;9.48;59.63
54248;BME280;40161;39.768;2.722;2023-01-19T01:47:36;100814.16;;;9.44;58.80
54248;BME280;40161;39.768;2.722;2023-01-19T01:50:14;100819.78;;;9.51;58.04
54248;BME280;40161;39.768;2.722;2023-01-19T01:53:11;100837.03;;;9.52;58.79
54248;BME280;40161;39.768;2.722;2023-01-19T01:55:44;100836.94;;;9.48;58.91
54248;BME280;40161;39.768;2.722;2023-01-19T01:58:14;100835.28;;;9.28;59.96
54248;BME280;40161;39.768;2.722;2023-01-19T02:00:40;100824.78;;;9.14;58.75
54248;BME280;40161;39.768;2.722;2023-01-19T02:03:25;100810.81;;;9.03;60.47
54248;BME280;40161;39.768;2.722;2023-01-19T02:05:54;100821.94;;;9.11;60.85
54248;BME280;40161;39.768;2.722;2023-01-19T02:08:56;100850.13;;;9.27;60.82
54248;BME280;40161;39.768;2.722;2023-01-19T02:11:42;100865.94;;;9.34;61.28
54248;BME280;40161;39.768;2.722;2023-01-19T02:14:26;100861.16;;;9.31;61.38
54248;BME280;40161;39.768;2.722;2023-01-19T02:16:52;100871.75;;;9.48;61.02
54248;BME280;40161;39.768;2.722;2023-01-19T02:19:24;100882.72;;;9.48;60.60
54248;BME280;40161;39.768;2.722;2023-01-19T02:22:50;100871.13;;;9.39;60.08
54248;BME280;40161;39.768;2.722;2023-01-19T02:24:51;100888.56;;;9.46;59.86
54248;BME280;40161;39.768;2.722;2023-01-19T02:27:17;100880.25;;;9.43;58.70
54248;BME280;40161;39.768;2.722;2023-01-19T02:29:43;100866.72;;;9.34;59.41
54248;BME280;40161;39.768;2.722;2023-01-19T02:32:09;100892.09;;;9.31;60.35
54248;BME280;40161;39.768;2.722;2023-01-19T02:34:35;100892.09;;;9.31;59.94
54248;BME280;40161;39.768;2.722;2023-01-19T02:37:04;100905.50;;;9.52;60.06
54248;BME280;40161;39.768;2.722;2023-01-19T02:40:10;100895.97;;;9.46;58.97
54248;BME280;40161;39.768;2.722;2023-01-19T02:42:47;100899.25;;;9.51;59.55
54248;BME280;40161;39.768;2.722;2023-01-19T02:45:19;100893.50;;;9.41;60.01
54248;BME280;40161;39.768;2.722;2023-01-19T02:47:48;100904.53;;;9.44;59.25
54248;BME280;40161;39.768;2.722;2023-01-19T02:50:51;100901.91;;;9.48;59.01
54248;BME280;40161;39.768;2.722;2023-01-19T03:07:19;100902.34;;;9.34;59.94
54248;BME280;40161;39.768;2.722;2023-01-19T03:09:57;100912.94;;;9.36;59.04
54248;BME280;40161;39.768;2.722;2023-01-19T03:15:34;100916.22;;;9.41;59.71
54248;BME280;40161;39.768;2.722;2023-01-19T03:18:07;100913.66;;;9.33;60.13
54248;BME280;40161;39.768;2.722;2023-01-19T03:20:35;100913.84;;;9.40;58.67
54248;BME280;40161;39.768;2.722;2023-01-19T03:23:04;100922.13;;;9.43;59.06
54248;BME280;40161;39.768;2.722;2023-01-19T03:25:34;100902.25;;;9.31;58.34
54248;BME280;40161;39.768;2.722;2023-01-19T03:28:02;100878.22;;;9.24;58.38
54248;BME280;40161;39.768;2.722;2023-01-19T03:30:32;100905.94;;;9.38;58.60
54248;BME280;40161;39.768;2.722;2023-01-19T03:33:07;100898.63;;;9.42;59.09
54248;BME280;40161;39.768;2.722;2023-01-19T03:35:35;100921.16;;;9.51;59.26
54248;BME280;40161;39.768;2.722;2023-01-19T03:38:05;100902.50;;;9.41;59.23
54248;BME280;40161;39.768;2.722;2023-01-19T03:40:34;100932.41;;;9.46;60.31
54248;BME280;40161;39.768;2.722;2023-01-19T03:43:01;100924.25;;;9.50;60.63
54248;BME280;40161;39.768;2.722;2023-01-19T03:45:30;100912.31;;;9.26;60.36
54248;BME280;40161;39.768;2.722;2023-01-19T03:47:58;100926.91;;;9.31;60.15
54248;BME280;40161;39.768;2.722;2023-01-19T03:50:27;100924.94;;;9.31;60.67
54248;BME280;40161;39.768;2.722;2023-01-19T03:53:10;100932.31;;;9.43;60.62
54248;BME280;40161;39.768;2.722;2023-01-19T03:55:39;100954.81;;;9.52;59.76
54248;BME280;40161;39.768;2.722;2023-01-19T03:58:05;100946.88;;;9.47;59.22
54248;BME280;40161;39.768;2.722;2023-01-19T04:00:31;100943.59;;;9.41;59.39
54248;BME280;40161;39.768;2.722;2023-01-19T04:02:57;100954.66;;;9.45;59.43
54248;BME280;40161;39.768;2.722;2023-01-19T04:05:22;100966.41;;;9.45;58.99
54248;BME280;40161;39.768;2.722;2023-01-19T04:07:49;100964.19;;;9.35;59.20
54248;BME280;40161;39.768;2.722;2023-01-19T04:10:16;100912.56;;;9.06;59.11
54248;BME280;40161;39.768;2.722;2023-01-19T04:12:42;100951.53;;;9.31;58.31
54248;BME280;40161;39.768;2.722;2023-01-19T04:15:07;100950.56;;;9.23;58.72
54248;BME280;40161;39.768;2.722;2023-01-19T04:17:33;100946.16;;;9.34;57.89
54248;BME280;40161;39.768;2.722;2023-01-19T04:19:58;100968.06;;;9.34;58.92
54248;BME280;40161;39.768;2.722;2023-01-19T04:22:24;100949.69;;;9.35;59.16
54248;BME280;40161;39.768;2.722;2023-01-19T04:24:50;100926.72;;;9.23;57.93
54248;BME280;40161;39.768;2.722;2023-01-19T04:27:16;100951.81;;;9.41;56.34
54248;BME280;40161;39.768;2.722;2023-01-19T04:29:42;100968.81;;;9.47;56.83
54248;BME280;40161;39.768;2.722;2023-01-19T04:32:08;100967.38;;;9.53;56.69
54248;BME280;40161;39.768;2.722;2023-01-19T04:34:33;100947.56;;;9.28;58.31
54248;BME280;40161;39.768;2.722;2023-01-19T04:36:59;100965.59;;;9.45;58.66
54248;BME280;40161;39.768;2.722;2023-01-19T04:39:25;100964.03;;;9.44;58.43
54248;BME280;40161;39.768;2.722;2023-01-19T04:41:52;100952.09;;;9.52;58.57
54248;BME280;40161;39.768;2.722;2023-01-19T04:44:18;100971.59;;;9.35;58.96
54248;BME280;40161;39.768;2.722;2023-01-19T04:46:43;100967.38;;;9.37;56.71
54248;BME280;40161;39.768;2.722;2023-01-19T04:49:09;100978.59;;;9.48;54.88
54248;BME280;40161;39.768;2.722;2023-01-19T04:51:35;100925.97;;;9.11;54.54
54248;BME280;40161;39.768;2.722;2023-01-19T04:54:01;100976.75;;;9.36;55.07
54248;BME280;40161;39.768;2.722;2023-01-19T04:56:27;100992.13;;;9.41;56.59
54248;BME280;40161;39.768;2.722;2023-01-19T04:58:53;100979.47;;;9.36;56.52
54248;BME280;40161;39.768;2.722;2023-01-19T05:01:18;100979.91;;;9.38;57.04
54248;BME280;40161;39.768;2.722;2023-01-19T05:03:44;100967.88;;;9.27;58.20
54248;BME280;40161;39.768;2.722;2023-01-19T05:06:10;100964.34;;;9.26;59.88
54248;BME280;40161;39.768;2.722;2023-01-19T05:08:36;100989.00;;;9.42;60.48
54248;BME280;40161;39.768;2.722;2023-01-19T05:11:01;100983.38;;;9.51;59.61
54248;BME280;40161;39.768;2.722;2023-01-19T05:13:27;100976.56;;;9.45;57.24
54248;BME280;40161;39.768;2.722;2023-01-19T05:15:53;100972.66;;;9.30;57.84
54248;BME280;40161;39.768;2.722;2023-01-19T05:18:18;100986.34;;;9.30;58.00
54248;BME280;40161;39.768;2.722;2023-01-19T05:20:44;100984.22;;;9.39;58.78
54248;BME280;40161;39.768;2.722;2023-01-19T05:23:09;100959.66;;;9.27;58.36
54248;BME280;40161;39.768;2.722;2023-01-19T05:25:35;100980.59;;;9.35;58.88
54248;BME280;40161;39.768;2.722;2023-01-19T05:28:00;100977.41;;;9.17;59.79
54248;BME280;40161;39.768;2.722;2023-01-19T05:30:27;100990.53;;;9.56;58.03
54248;BME280;40161;39.768;2.722;2023-01-19T05:32:52;100979.66;;;9.43;59.93
54248;BME280;40161;39.768;2.722;2023-01-19T05:35:18;100978.38;;;9.25;60.11
54248;BME280;40161;39.768;2.722;2023-01-19T05:37:44;100996.53;;;9.30;60.20
54248;BME280;40161;39.768;2.722;2023-01-19T05:40:10;100979.22;;;9.41;59.80
54248;BME280;40161;39.768;2.722;2023-01-19T05:42:36;100978.47;;;9.28;60.76
54248;BME280;40161;39.768;2.722;2023-01-19T05:45:02;100995.59;;;9.25;61.03
54248;BME280;40161;39.768;2.722;2023-01-19T05:47:28;100999.59;;;9.28;60.92
54248;BME280;40161;39.768;2.722;2023-01-19T05:49:54;100996.63;;;9.33;61.03
54248;BME280;40161;39.768;2.722;2023-01-19T05:52:19;101002.97;;;9.37;59.57
54248;BME280;40161;39.768;2.722;2023-01-19T05:54:46;101020.13;;;9.34;60.06
54248;BME280;40161;39.768;2.722;2023-01-19T05:57:13;101014.72;;;9.38;59.91
54248;BME280;40161;39.768;2.722;2023-01-19T05:59:39;101008.38;;;9.34;60.79
54248;BME280;40161;39.768;2.722;2023-01-19T06:02:04;101006.81;;;9.20;60.23
54248;BME280;40161;39.768;2.722;2023-01-19T06:04:30;101013.38;;;9.32;59.22
54248;BME280;40161;39.768;2.722;2023-01-19T06:06:56;101018.03;;;9.43;59.69
54248;BME280;40161;39.768;2.722;2023-01-19T06:09:21;101014.50;;;9.43;59.04
54248;BME280;40161;39.768;2.722;2023-01-19T06:11:47;101019.41;;;9.37;60.47
54248;BME280;40161;39.768;2.722;2023-01-19T06:14:12;101024.81;;;9.34;61.50
54248;BME280;40161;39.768;2.722;2023-01-19T06:16:38;101034.88;;;9.30;61.15
54248;BME280;40161;39.768;2.722;2023-01-19T06:19:04;101026.84;;;9.37;62.13
54248;BME280;40161;39.768;2.722;2023-01-19T06:21:29;101030.72;;;9.36;61.95
54248;BME280;40161;39.768;2.722;2023-01-19T06:23:55;101013.25;;;9.12;61.45
54248;BME280;40161;39.768;2.722;2023-01-19T06:26:21;101033.72;;;9.31;61.81
54248;BME280;40161;39.768;2.722;2023-01-19T06:28:46;101038.22;;;9.39;61.66
54248;BME280;40161;39.768;2.722;2023-01-19T06:31:12;101027.72;;;9.41;61.06
54248;BME280;40161;39.768;2.722;2023-01-19T06:33:38;101047.50;;;9.34;60.96
54248;BME280;40161;39.768;2.722;2023-01-19T06:36:04;101028.94;;;9.27;60.39
54248;BME280;40161;39.768;2.722;2023-01-19T06:38:30;101032.06;;;9.42;60.14
54248;BME280;40161;39.768;2.722;2023-01-19T06:40:57;101064.31;;;9.48;61.14
54248;BME280;40161;39.768;2.722;2023-01-19T06:43:23;101029.88;;;9.19;59.94
54248;BME280;40161;39.768;2.722;2023-01-19T06:45:49;101055.81;;;9.38;59.92
54248;BME280;40161;39.768;2.722;2023-01-19T06:48:15;101056.81;;;9.45;61.09
54248;BME280;40161;39.768;2.722;2023-01-19T06:50:44;101068.66;;;9.49;61.85
54248;BME280;40161;39.768;2.722;2023-01-19T06:53:09;101067.66;;;9.42;62.40
54248;BME280;40161;39.768;2.722;2023-01-19T06:55:35;101065.28;;;9.40;60.71
54248;BME280;40161;39.768;2.722;2023-01-19T06:58:01;101063.16;;;9.06;62.88
54248;BME280;40161;39.768;2.722;2023-01-19T07:00:27;101100.53;;;9.42;62.29
54248;BME280;40161;39.768;2.722;2023-01-19T07:02:53;101098.97;;;9.28;62.99
54248;BME280;40161;39.768;2.722;2023-01-19T07:05:18;101088.31;;;9.11;61.77
54248;BME280;40161;39.768;2.722;2023-01-19T07:07:55;101106.38;;;9.12;62.39
54248;BME280;40161;39.768;2.722;2023-01-19T07:10:21;101112.78;;;9.32;61.01
54248;BME280;40161;39.768;2.722;2023-01-19T07:12:48;101074.81;;;8.90;59.66
54248;BME280;40161;39.768;2.722;2023-01-19T07:15:15;101114.38;;;9.05;60.42
54248;BME280;40161;39.768;2.722;2023-01-19T07:17:41;101097.97;;;8.93;62.89
54248;BME280;40161;39.768;2.722;2023-01-19T07:20:10;101080.94;;;8.99;62.73
54248;BME280;40161;39.768;2.722;2023-01-19T07:22:41;101110.28;;;8.99;64.07
54248;BME280;40161;39.768;2.722;2023-01-19T07:25:10;101109.31;;;9.07;63.44
54248;BME280;40161;39.768;2.722;2023-01-19T07:27:36;101108.63;;;9.10;63.04
54248;BME280;40161;39.768;2.722;2023-01-19T07:30:02;101103.53;;;9.09;62.87
54248;BME280;40161;39.768;2.722;2023-01-19T07:32:29;101105.06;;;9.22;62.03
54248;BME280;40161;39.768;2.722;2023-01-19T07:34:54;101081.91;;;9.19;60.40
54248;BME280;40161;39.768;2.722;2023-01-19T07:37:20;101099.06;;;9.04;61.69
54248;BME280;40161;39.768;2.722;2023-01-19T07:39:45;101087.94;;;8.85;64.44
54248;BME280;40161;39.768;2.722;2023-01-19T07:42:11;101135.81;;;9.03;66.59
54248;BME280;40161;39.768;2.722;2023-01-19T07:44:37;101111.28;;;8.94;66.60
54248;BME280;40161;39.768;2.722;2023-01-19T07:47:02;101113.16;;;8.78;67.17
54248;BME280;40161;39.768;2.722;2023-01-19T07:49:30;101147.94;;;8.77;67.91
54248;BME280;40161;39.768;2.722;2023-01-19T07:51:55;101133.75;;;8.88;67.21
54248;BME280;40161;39.768;2.722;2023-01-19T07:54:21;101157.84;;;8.82;67.46
54248;BME280;40161;39.768;2.722;2023-01-19T07:56:46;101152.59;;;8.77;67.15
54248;BME280;40161;39.768;2.722;2023-01-19T07:59:12;101139.47;;;8.83;66.15
54248;BME280;40161;39.768;2.722;2023-01-19T08:01:39;101122.03;;;8.87;65.57
54248;BME280;40161;39.768;2.722;2023-01-19T08:04:04;101144.13;;;8.94;65.07
54248;BME280;40161;39.768;2.722;2023-01-19T08:06:34;101156.44;;;9.13;66.64
54248;BME280;40161;39.768;2.722;2023-01-19T08:09:01;101164.97;;;9.11;66.34
54248;BME280;40161;39.768;2.722;2023-01-19T08:11:30;101162.94;;;9.08;67.08
54248;BME280;40161;39.768;2.722;2023-01-19T08:13:55;101146.53;;;8.96;65.31
54248;BME280;40161;39.768;2.722;2023-01-19T08:16:21;101143.69;;;8.92;62.84
54248;BME280;40161;39.768;2.722;2023-01-19T08:18:46;101160.78;;;9.01;64.02
54248;BME280;40161;39.768;2.722;2023-01-19T08:21:12;101170.38;;;8.95;62.48
54248;BME280;40161;39.768;2.722;2023-01-19T08:23:37;101160.13;;;8.92;62.34
54248;BME280;40161;39.768;2.722;2023-01-19T08:26:20;101173.34;;;9.02;62.05
54248;BME280;40161;39.768;2.722;2023-01-19T08:28:48;101156.22;;;8.93;63.23
54248;BME280;40161;39.768;2.722;2023-01-19T08:31:14;101159.19;;;9.00;63.31
54248;BME280;40161;39.768;2.722;2023-01-19T08:33:39;101170.13;;;9.00;64.73
54248;BME280;40161;39.768;2.722;2023-01-19T08:36:07;101175.81;;;9.08;64.60
54248;BME280;40161;39.768;2.722;2023-01-19T08:38:32;101192.03;;;9.13;64.65
54248;BME280;40161;39.768;2.722;2023-01-19T08:40:58;101181.41;;;9.11;63.45
54248;BME280;40161;39.768;2.722;2023-01-19T08:43:23;101192.03;;;9.13;63.47
54248;BME280;40161;39.768;2.722;2023-01-19T08:45:50;101198.41;;;9.17;63.46
54248;BME280;40161;39.768;2.722;2023-01-19T08:48:19;101202.53;;;9.11;65.33
54248;BME280;40161;39.768;2.722;2023-01-19T08:50:46;101194.88;;;9.16;65.75
54248;BME280;40161;39.768;2.722;2023-01-19T08:53:12;101186.00;;;8.95;65.86
54248;BME280;40161;39.768;2.722;2023-01-19T08:55:37;101193.75;;;8.93;64.50
54248;BME280;40161;39.768;2.722;2023-01-19T08:58:04;101211.88;;;9.10;64.51
54248;BME280;40161;39.768;2.722;2023-01-19T09:00:31;101208.13;;;9.02;64.94
54248;BME280;40161;39.768;2.722;2023-01-19T09:02:58;101216.91;;;8.95;62.13
54248;BME280;40161;39.768;2.722;2023-01-19T09:05:23;101224.09;;;9.12;63.05
54248;BME280;40161;39.768;2.722;2023-01-19T09:07:49;101214.50;;;9.18;63.91
54248;BME280;40161;39.768;2.722;2023-01-19T09:10:16;101235.59;;;9.30;63.84
54248;BME280;40161;39.768;2.722;2023-01-19T09:12:42;101233.34;;;9.20;62.40
54248;BME280;40161;39.768;2.722;2023-01-19T09:15:10;101223.53;;;9.19;62.98
54248;BME280;40161;39.768;2.722;2023-01-19T09:17:36;101231.50;;;9.24;61.22
54248;BME280;40161;39.768;2.722;2023-01-19T09:20:02;101251.00;;;9.35;61.10
54248;BME280;40161;39.768;2.722;2023-01-19T09:22:28;101250.66;;;9.24;61.72
54248;BME280;40161;39.768;2.722;2023-01-19T09:24:54;101235.50;;;9.26;62.24
54248;BME280;40161;39.768;2.722;2023-01-19T09:27:19;101231.75;;;9.19;62.98
54248;BME280;40161;39.768;2.722;2023-01-19T09:29:45;101225.69;;;9.13;64.04
54248;BME280;40161;39.768;2.722;2023-01-19T09:32:17;101256.94;;;9.37;64.60
54248;BME280;40161;39.768;2.722;2023-01-19T09:34:44;101225.91;;;9.08;63.74
54248;BME280;40161;39.768;2.722;2023-01-19T09:37:09;101249.72;;;9.32;63.56
54248;BME280;40161;39.768;2.722;2023-01-19T09:39:35;101237.97;;;9.32;64.36
54248;BME280;40161;39.768;2.722;2023-01-19T09:44:44;101250.31;;;9.25;63.22
54248;BME280;40161;39.768;2.722;2023-01-19T09:47:16;101276.44;;;9.47;62.09
54248;BME280;40161;39.768;2.722;2023-01-19T09:49:47;101273.34;;;9.49;62.63
54248;BME280;40161;39.768;2.722;2023-01-19T09:52:15;101263.16;;;9.62;61.37
54248;BME280;40161;39.768;2.722;2023-01-19T09:54:56;101290.56;;;9.62;62.16
54248;BME280;40161;39.768;2.722;2023-01-19T09:57:23;101281.41;;;9.70;61.70
54248;BME280;40161;39.768;2.722;2023-01-19T09:59:49;101278.34;;;9.59;62.10
54248;BME280;40161;39.768;2.722;2023-01-19T10:05:26;101281.88;;;9.60;61.86
54248;BME280;40161;39.768;2.722;2023-01-19T10:10:44;101285.06;;;9.74;60.16
54248;BME280;40161;39.768;2.722;2023-01-19T10:13:47;101288.00;;;9.81;60.85
54248;BME280;40161;39.768;2.722;2023-01-19T10:18:49;101286.88;;;10.10;60.77
54248;BME280;40161;39.768;2.722;2023-01-19T10:23:57;101285.91;;;9.90;61.48
54248;BME280;40161;39.768;2.722;2023-01-19T10:26:23;101284.78;;;9.91;60.24
54248;BME280;40161;39.768;2.722;2023-01-19T10:29:21;101276.91;;;9.90;62.22
54248;BME280;40161;39.768;2.722;2023-01-19T10:31:47;101263.53;;;9.88;61.59
54248;BME280;40161;39.768;2.722;2023-01-19T10:34:13;101260.91;;;9.92;60.78
54248;BME280;40161;39.768;2.722;2023-01-19T10:36:44;101269.34;;;9.99;61.46
54248;BME280;40161;39.768;2.722;2023-01-19T10:39:14;101260.03;;;10.04;60.57
54248;BME280;40161;39.768;2.722;2023-01-19T10:41:51;101274.06;;;10.14;61.25
54248;BME280;40161;39.768;2.722;2023-01-19T10:44:26;101280.09;;;10.20;62.21
54248;BME280;40161;39.768;2.722;2023-01-19T10:46:56;101261.41;;;10.10;61.22
54248;BME280;40161;39.768;2.722;2023-01-19T10:49:29;101272.88;;;9.99;61.27
54248;BME280;40161;39.768;2.722;2023-01-19T10:51:57;101275.59;;;9.99;60.47
54248;BME280;40161;39.768;2.722;2023-01-19T10:54:24;101274.91;;;10.03;61.20
54248;BME280;40161;39.768;2.722;2023-01-19T10:57:02;101263.34;;;10.09;61.20
54248;BME280;40161;39.768;2.722;2023-01-19T10:59:34;101287.44;;;10.16;61.81
54248;BME280;40161;39.768;2.722;2023-01-19T11:04:39;101254.66;;;10.07;60.90
54248;BME280;40161;39.768;2.722;2023-01-19T11:09:44;101257.72;;;10.46;60.76
54248;BME280;40161;39.768;2.722;2023-01-19T11:12:21;101272.84;;;10.40;61.50
54248;BME280;40161;39.768;2.722;2023-01-19T11:14:48;101264.69;;;10.43;60.78
54248;BME280;40161;39.768;2.722;2023-01-19T11:17:18;101254.56;;;10.32;60.12
54248;BME280;40161;39.768;2.722;2023-01-19T11:19:55;101270.19;;;10.43;61.02
54248;BME280;40161;39.768;2.722;2023-01-19T11:22:26;101251.78;;;10.16;61.13
54248;BME280;40161;39.768;2.722;2023-01-19T11:24:57;101248.06;;;10.24;60.77
54248;BME280;40161;39.768;2.722;2023-01-19T11:27:23;101261.22;;;10.18;60.04
54248;BME280;40161;39.768;2.722;2023-01-19T11:29:57;101259.16;;;10.28;60.91
54248;BME280;40161;39.768;2.722;2023-01-19T11:32:26;101251.97;;;10.23;62.51
54248;BME280;40161;39.768;2.722;2023-01-19T11:34:52;101245.81;;;10.26;61.49
54248;BME280;40161;39.768;2.722;2023-01-19T11:39:47;101242.41;;;10.17;60.38
54248;BME280;40161;39.768;2.722;2023-01-19T11:42:13;101242.31;;;10.13;60.68
54248;BME280;40161;39.768;2.722;2023-01-19T11:44:47;101244.06;;;10.34;60.28
54248;BME280;40161;39.768;2.722;2023-01-19T11:49:58;101227.16;;;10.48;58.94
54248;BME280;40161;39.768;2.722;2023-01-19T11:52:44;101240.97;;;10.51;59.86
54248;BME280;40161;39.768;2.722;2023-01-19T11:55:36;101234.75;;;10.38;60.14
54248;BME280;40161;39.768;2.722;2023-01-19T11:58:04;101212.91;;;10.42;58.59
54248;BME280;40161;39.768;2.722;2023-01-19T12:00:41;101230.06;;;10.39;58.10
54248;BME280;40161;39.768;2.722;2023-01-19T12:03:40;101231.50;;;10.49;58.62
54248;BME280;40161;39.768;2.722;2023-01-19T12:06:14;101203.38;;;10.23;58.67
54248;BME280;40161;39.768;2.722;2023-01-19T12:09:04;101212.28;;;10.33;59.06
54248;BME280;40161;39.768;2.722;2023-01-19T12:11:36;101218.16;;;10.47;58.85
54248;BME280;40161;39.768;2.722;2023-01-19T12:14:03;101192.75;;;10.50;58.32
54248;BME280;40161;39.768;2.722;2023-01-19T12:16:30;101204.56;;;10.38;58.79
54248;BME280;40161;39.768;2.722;2023-01-19T12:19:06;101193.69;;;10.42;59.69
54248;BME280;40161;39.768;2.722;2023-01-19T12:21:36;101197.53;;;10.53;59.66
54248;BME280;40161;39.768;2.722;2023-01-19T12:24:28;101201.22;;;10.61;59.44
54248;BME280;40161;39.768;2.722;2023-01-19T12:27:00;101184.41;;;10.47;60.65
54248;BME280;40161;39.768;2.722;2023-01-19T12:29:32;101210.53;;;10.72;60.13
54248;BME280;40161;39.768;2.722;2023-01-19T12:34:50;101206.72;;;10.61;58.89
54248;BME280;40161;39.768;2.722;2023-01-19T12:37:40;101203.78;;;10.69;59.17
54248;BME280;40161;39.768;2.722;2023-01-19T12:40:22;101197.34;;;10.62;59.59
54248;BME280;40161;39.768;2.722;2023-01-19T12:43:00;101193.78;;;10.61;57.39
54248;BME280;40161;39.768;2.722;2023-01-19T12:45:33;101180.22;;;10.53;58.79
54248;BME280;40161;39.768;2.722;2023-01-19T12:47:59;101183.69;;;10.65;58.81
54248;BME280;40161;39.768;2.722;2023-01-19T12:50:32;101187.22;;;10.82;58.31
54248;BME280;40161;39.768;2.722;2023-01-19T12:53:01;101170.66;;;10.78;58.89
54248;BME280;40161;39.768;2.722;2023-01-19T12:55:36;101163.31;;;10.66;58.58
54248;BME280;40161;39.768;2.722;2023-01-19T12:58:15;101168.19;;;10.73;57.10
54248;BME280;40161;39.768;2.722;2023-01-19T13:00:46;101174.19;;;10.95;54.87
54248;BME280;40161;39.768;2.722;2023-01-19T13:08:18;101143.84;;;10.72;55.41
54248;BME280;40161;39.768;2.722;2023-01-19T13:24:07;101126.75;;;10.78;54.11
54248;BME280;40161;39.768;2.722;2023-01-19T13:29:18;101116.31;;;10.68;55.58
54248;BME280;40161;39.768;2.722;2023-01-19T13:31:47;101118.13;;;10.80;55.07
54248;BME280;40161;39.768;2.722;2023-01-19T13:34:23;101113.66;;;10.72;55.65
54248;BME280;40161;39.768;2.722;2023-01-19T13:36:51;101122.88;;;10.99;55.46
54248;BME280;40161;39.768;2.722;2023-01-19T13:39:29;101099.16;;;10.90;55.30
54248;BME280;40161;39.768;2.722;2023-01-19T13:42:00;101120.34;;;10.90;55.53
54248;BME280;40161;39.768;2.722;2023-01-19T13:44:29;101127.00;;;10.89;55.64
54248;BME280;40161;39.768;2.722;2023-01-19T13:46:56;101109.16;;;10.99;55.62
54248;BME280;40161;39.768;2.722;2023-01-19T13:49:38;101117.31;;;10.95;53.09
54248;BME280;40161;39.768;2.722;2023-01-19T13:54:51;101108.28;;;10.95;54.19
54248;BME280;40161;39.768;2.722;2023-01-19T13:57:43;101106.19;;;11.07;53.98
54248;BME280;40161;39.768;2.722;2023-01-19T14:02:59;101095.84;;;11.01;52.86
54248;BME280;40161;39.768;2.722;2023-01-19T14:05:58;101088.06;;;11.22;52.55
54248;BME280;40161;39.768;2.722;2023-01-19T14:08:18;101083.38;;;11.23;53.03
54248;BME280;40161;39.768;2.722;2023-01-19T14:13:35;101088.13;;;11.45;52.52
54248;BME280;40161;39.768;2.722;2023-01-19T14:16:14;101059.84;;;11.45;51.83
54248;BME280;40161;39.768;2.722;2023-01-19T14:18:40;101061.00;;;11.44;50.55
54248;BME280;40161;39.768;2.722;2023-01-19T14:21:09;101077.56;;;11.47;50.51
54248;BME280;40161;39.768;2.722;2023-01-19T14:29:27;101079.53;;;11.47;51.00